Main page
METAR-TAF:

METAR-TAF

Airports :

Multan International Airport

Multan, Pakistan

latitude: 30-12-12N, longitude: 71-25-09E, elevation: 122 m

Current weather observation

The report was made 15 minutes ago, at 16:30 UTC
Calm wind
Temperature 22°C
Humidity 60%
Pressure 1015 hPa
Visibility: 4000 m
smoke

METAR: OPMT 251630Z 00000KT 4000 FU NSC 22/14 Q1015 NOSIG

Time: 21:45 (16:45 UTC)

Forecast

The report was made 7 hours and 0 minutes ago, at 09:45 UTC
Forecast valid from 25 at 12 UTC to 26 at 06 UTC
Wind 10 kt from the Northeast
Visibility: 5000 m
Few clouds at a height of 12000 ft
smoke
Probability 30% :
Temporary
from 25 at 20 UTC to 25 at 24 UTC
Wind 5 kt from the Northeast
Visibility: 3000 m
smoke
Temporary
from 26 at 01 UTC to 26 at 05 UTC
Wind 10 kt from the North
Visibility: 2000 m
smoke

TAF: OPMT 250945Z 2512/2606 05010KT 5000 FU FEW120 TN16/2601Z PROB30 TEMPO 2520/2524 05005KT 3000 FU NSC TEMPO 2601/2605 36010KT 2000 FU NSC

Weather observations and forecasts of more than 4000 airports (METAR and TAF reports).

The available stations are represented by yellow and red dots on the map.

Hover mouse over dot to see the name of the station.

Then click to see weather observations and forecasts.

To change the map : click on the green buttons with a black cross to zoom in, on the green button with a dash to zoom out, or on the green arrows for adjacent maps.


METAR-TAF: